Time;durP1;ratioP1;P1;durP2;ratioP2;P2;SDS_P1;SDS_P2;PMS_P1;PMS_P2;Temp;Humidity;BMP_temperature;BMP_pressure;BME280_temperature;BME280_humidity;BME280_pressure;Samples;Min_cycle;Max_cycle;Signal;HPM_P1;HPM_P2
2022/12/17 13:08:17;;;;;;;35.40;15.33;;;;;;;-0.14;61.07;101742.75;5103049;28;20207;-59
2022/12/17 13:10:46;;;;;;;35.40;13.67;;;;;;;-0.08;60.37;101739.94;5107354;28;20208;-59
2022/12/17 13:13:30;;;;;;;37.60;15.37;;;;;;;-0.17;59.63;101745.47;5109912;28;20243;-58
2022/12/17 13:16:02;;;;;;;37.13;15.43;;;;;;;-0.23;60.32;101745.66;5111549;28;20209;-60
2022/12/17 13:18:33;;;;;;;31.93;14.13;;;;;;;-0.30;60.22;101738.94;5097505;28;20243;-60
2022/12/17 13:21:06;;;;;;;35.13;13.97;;;;;;;-0.39;59.94;101740.94;5104323;28;20329;-60
2022/12/17 13:23:36;;;;;;;29.40;14.27;;;;;;;-0.49;60.02;101729.09;5106659;28;20570;-61
2022/12/17 13:26:23;;;;;;;34.83;14.27;;;;;;;-0.41;59.91;101731.44;5106517;28;20218;-59
2022/12/17 13:29:10;;;;;;;33.07;14.33;;;;;;;-0.32;59.96;101735.53;5105659;28;20233;-59
2022/12/17 13:31:49;;;;;;;32.33;14.87;;;;;;;-0.32;60.04;101733.78;5108511;28;20244;-58
2022/12/17 13:34:24;;;;;;;30.70;14.73;;;;;;;-0.29;60.39;101728.47;5104243;28;20254;-64
2022/12/17 13:37:01;;;;;;;35.53;15.00;;;;;;;-0.24;60.36;101738.75;5097486;28;20209;-58
2022/12/17 13:39:37;;;;;;;35.47;15.20;;;;;;;-0.18;60.00;101739.41;5103878;28;20424;-59
2022/12/17 13:42:15;;;;;;;32.67;14.27;;;;;;;-0.46;60.25;101738.56;5108765;28;20213;-60
2022/12/17 13:44:45;;;;;;;33.30;14.33;;;;;;;-0.52;61.14;101737.00;5102158;28;20542;-60
2022/12/17 13:47:21;;;;;;;37.40;13.83;;;;;;;-0.57;61.49;101738.03;5107290;28;20214;-58
2022/12/17 13:49:54;;;;;;;32.00;14.80;;;;;;;-0.62;61.63;101729.53;5109436;28;20211;-59
2022/12/17 13:52:43;;;;;;;31.13;14.47;;;;;;;-0.50;61.57;101731.75;5100107;28;20251;-59
2022/12/17 13:55:19;;;;;;;37.67;15.67;;;;;;;-0.57;61.94;101741.50;5108132;28;20223;-60
2022/12/17 13:57:49;;;;;;;37.23;15.27;;;;;;;-0.64;61.86;101741.75;5106293;28;20240;-60
2022/12/17 14:00:22;;;;;;;42.47;16.40;;;;;;;-0.52;62.25;101750.03;5105446;28;20964;-58
2022/12/17 14:02:51;;;;;;;39.77;15.93;;;;;;;-0.40;61.51;101748.81;5106439;28;20198;-61
2022/12/17 14:05:29;;;;;;;41.53;17.17;;;;;;;-0.36;61.19;101750.44;5105965;28;20714;-58
2022/12/17 14:08:00;;;;;;;43.07;16.83;;;;;;;-0.51;61.45;101746.53;5099309;28;20211;-62
2022/12/17 14:10:29;;;;;;;38.97;15.97;;;;;;;-0.56;61.73;101753.63;5107409;28;20226;-59
2022/12/17 14:13:04;;;;;;;37.03;16.43;;;;;;;-0.66;61.95;101752.19;5110810;28;20240;-60
2022/12/17 14:15:32;;;;;;;37.93;16.30;;;;;;;-0.60;61.35;101752.00;5106053;28;20261;-61
2022/12/17 14:18:01;;;;;;;39.77;17.27;;;;;;;-0.81;61.66;101758.72;5101114;28;20208;-61
2022/12/17 14:20:32;;;;;;;41.10;15.07;;;;;;;-0.87;61.89;101752.81;5099891;28;20662;-60
2022/12/17 14:23:04;;;;;;;41.73;14.93;;;;;;;-1.05;62.01;101754.19;5088817;28;20452;-60
2022/12/17 14:25:36;;;;;;;37.33;15.70;;;;;;;-1.03;62.04;101751.56;5103120;28;20211;-60
2022/12/17 14:28:06;;;;;;;35.40;14.93;;;;;;;-1.05;62.09;101754.19;5107780;28;21256;-60
2022/12/17 14:30:37;;;;;;;41.77;13.80;;;;;;;-1.07;62.15;101755.16;5102446;28;20298;-58
2022/12/17 14:33:26;;;;;;;36.73;14.20;;;;;;;-1.16;61.85;101751.06;5102493;28;20472;-59
2022/12/17 14:36:00;;;;;;;36.73;14.07;;;;;;;-1.32;62.16;101755.81;5107223;28;20211;-59
2022/12/17 14:38:29;;;;;;;39.13;15.33;;;;;;;-1.20;61.94;101754.63;5108536;28;20657;-59
2022/12/17 14:43:58;;;;;;;34.50;14.10;;;;;;;-1.33;62.03;101767.13;5102189;28;20547;-59
2022/12/17 14:46:26;;;;;;;32.37;13.80;;;;;;;-1.43;62.05;101768.28;5108872;28;20819;-60
2022/12/17 14:49:02;;;;;;;32.23;13.50;;;;;;;-1.40;62.06;101769.91;5102091;28;20253;-61
2022/12/17 14:51:33;;;;;;;36.13;15.33;;;;;;;-1.48;62.34;101772.72;5107400;27;20295;-57
2022/12/17 14:54:22;;;;;;;32.53;13.30;;;;;;;-1.45;62.32;101783.06;5108993;28;20492;-60
2022/12/17 14:56:50;;;;;;;30.87;14.03;;;;;;;-1.55;62.70;101779.84;5105930;28;21069;-60
2022/12/17 14:59:32;;;;;;;33.47;14.43;;;;;;;-1.63;63.00;101773.13;5107536;28;20290;-60
2022/12/17 15:02:04;;;;;;;38.27;14.50;;;;;;;-1.74;63.47;101777.75;5106627;28;20531;-62
2022/12/17 15:04:32;;;;;;;36.30;15.00;;;;;;;-1.75;63.85;101776.88;5105732;28;20457;-60
2022/12/17 15:07:00;;;;;;;37.10;15.83;;;;;;;-1.62;63.57;101773.09;5102224;28;20880;-59
2022/12/17 15:09:29;;;;;;;34.70;14.17;;;;;;;-1.65;63.21;101777.50;5099123;28;20464;-59
2022/12/17 15:11:57;;;;;;;37.50;15.30;;;;;;;-1.70;62.93;101779.38;5105382;28;20490;-59
2022/12/17 15:14:24;;;;;;;39.87;16.07;;;;;;;-1.81;63.59;101786.59;5109246;28;20493;-58
2022/12/17 15:16:54;;;;;;;38.30;15.00;;;;;;;-1.97;64.07;101792.19;5109645;28;20469;-59
2022/12/17 15:19:21;;;;;;;40.90;16.67;;;;;;;-2.08;64.32;101798.50;5106854;28;20465;-57
2022/12/17 15:21:49;;;;;;;41.83;16.70;;;;;;;-2.11;64.85;101799.44;5098117;28;20849;-60
2022/12/17 15:24:20;;;;;;;38.70;16.10;;;;;;;-2.06;64.35;101808.00;5107297;28;20456;-60
2022/12/17 15:26:49;;;;;;;42.23;15.87;;;;;;;-2.09;64.82;101802.84;5109312;28;20458;-61
2022/12/17 15:29:17;;;;;;;47.30;16.80;;;;;;;-2.03;64.83;101810.53;5101014;28;20485;-60
2022/12/17 15:31:46;;;;;;;42.17;16.83;;;;;;;-2.01;65.11;101811.31;5102211;28;21068;-60
2022/12/17 15:34:14;;;;;;;43.43;17.77;;;;;;;-1.97;65.09;101814.72;5096157;28;20543;-59
2022/12/17 15:36:42;;;;;;;49.73;17.93;;;;;;;-1.94;64.99;101812.06;5104045;28;20943;-58
2022/12/17 15:39:10;;;;;;;44.83;18.20;;;;;;;-1.93;64.63;101813.75;5099897;28;20555;-60
2022/12/17 15:44:25;;;;;;;42.53;16.43;;;;;;;-1.76;63.59;101815.97;5102486;28;20458;-60
2022/12/17 15:46:52;;;;;;;41.03;16.23;;;;;;;-1.70;63.64;101816.66;5103111;28;20990;-60
2022/12/17 15:49:20;;;;;;;44.00;17.67;;;;;;;-1.93;64.07;101813.75;5093731;28;20455;-60
2022/12/17 15:51:48;;;;;;;52.10;18.43;;;;;;;-2.07;65.00;101821.88;5105989;28;20461;-60
2022/12/17 15:54:16;;;;;;;50.43;20.30;;;;;;;-2.05;65.19;101819.25;5101787;28;20823;-60
2022/12/17 15:56:52;;;;;;;48.77;19.10;;;;;;;-2.11;65.64;101824.59;5103007;28;20458;-60
2022/12/17 15:59:20;;;;;;;54.83;19.77;;;;;;;-2.17;66.09;101819.50;5103639;28;20932;-61
2022/12/17 16:01:49;;;;;;;48.73;20.10;;;;;;;-2.17;66.20;101822.97;5107547;28;20460;-60
2022/12/17 16:04:17;;;;;;;49.30;19.13;;;;;;;-2.20;66.36;101823.06;5106773;28;20453;-61
2022/12/17 16:06:51;;;;;;;53.03;18.40;;;;;;;-1.84;65.44;101830.88;5107360;28;20551;-58
2022/12/17 16:09:23;;;;;;;46.83;18.57;;;;;;;-1.99;65.68;101819.94;5106361;28;20510;-60
2022/12/17 16:11:53;;;;;;;47.77;17.57;;;;;;;-2.00;65.55;101818.22;5103725;28;20472;-59
2022/12/17 16:14:21;;;;;;;57.30;18.43;;;;;;;-2.11;65.69;101815.03;5102580;28;20537;-59
2022/12/17 16:16:51;;;;;;;53.00;19.77;;;;;;;-2.18;66.35;101817.78;5105975;28;20457;-60
2022/12/17 16:19:21;;;;;;;56.73;19.77;;;;;;;-2.29;66.78;101820.66;5103559;28;20821;-60
2022/12/17 16:21:49;;;;;;;53.00;19.57;;;;;;;-2.22;66.64;101821.38;5106489;28;20454;-59
2022/12/17 16:24:17;;;;;;;49.10;18.83;;;;;;;-2.18;66.31;101826.44;5106949;28;20449;-59
2022/12/17 16:26:45;;;;;;;50.70;18.90;;;;;;;-2.21;65.99;101823.94;5107775;28;20486;-58
2022/12/17 16:29:13;;;;;;;43.47;17.57;;;;;;;-2.14;66.05;101822.91;5108302;28;20486;-59
2022/12/17 16:31:41;;;;;;;51.77;19.87;;;;;;;-2.07;65.92;101829.66;5107543;28;20461;-58
2022/12/17 16:34:11;;;;;;;48.97;19.67;;;;;;;-2.00;65.66;101833.84;5104268;28;20482;-59
2022/12/17 16:36:39;;;;;;;42.67;18.27;;;;;;;-1.84;65.06;101838.66;5102102;28;20924;-58
2022/12/17 16:39:07;;;;;;;51.67;19.60;;;;;;;-1.84;64.72;101838.66;5103264;28;20471;-60
2022/12/17 16:41:34;;;;;;;46.80;18.70;;;;;;;-2.02;64.92;101835.59;5101220;28;20456;-60
2022/12/17 16:44:03;;;;;;;45.00;18.83;;;;;;;-2.09;65.74;101828.84;5108700;28;20456;-60
2022/12/17 16:46:33;;;;;;;54.60;20.73;;;;;;;-2.10;66.06;101836.66;5098608;28;20506;-61
2022/12/17 16:49:05;;;;;;;46.47;18.93;;;;;;;-2.08;65.43;101842.69;5101415;28;20453;-60
2022/12/17 16:51:35;;;;;;;53.10;19.43;;;;;;;-2.10;65.28;101839.28;5106267;28;20448;-59
2022/12/17 16:54:07;;;;;;;47.97;18.60;;;;;;;-2.21;65.34;101834.34;5107326;28;20487;-60
2022/12/17 16:56:35;;;;;;;51.10;19.00;;;;;;;-2.19;65.25;101823.88;5102801;28;20460;-60
2022/12/17 16:59:08;;;;;;;43.50;18.07;;;;;;;-2.17;64.87;101840.31;5096228;28;20518;-61
2022/12/17 17:01:37;;;;;;;49.57;19.30;;;;;;;-2.32;65.00;101833.72;5107783;28;20544;-60
2022/12/17 17:04:06;;;;;;;50.93;20.20;;;;;;;-2.35;65.27;101839.81;5104308;28;20464;-59
2022/12/17 17:06:39;;;;;;;45.13;18.03;;;;;;;-2.32;65.38;101844.97;5097516;28;20449;-59
2022/12/17 17:09:08;;;;;;;46.83;17.60;;;;;;;-2.34;65.45;101838.94;5102836;28;20456;-61
2022/12/17 17:11:36;;;;;;;45.80;17.87;;;;;;;-2.38;65.53;101846.84;5092539;28;20490;-60
2022/12/17 17:14:05;;;;;;;47.70;19.07;;;;;;;-2.35;65.43;101850.22;5102343;28;20491;-60
2022/12/17 17:16:33;;;;;;;48.20;18.70;;;;;;;-2.39;65.42;101851.19;5098226;28;20483;-60
2022/12/17 17:19:02;;;;;;;42.60;18.67;;;;;;;-2.27;65.20;101850.03;5103960;28;20477;-59
2022/12/17 17:21:31;;;;;;;47.97;19.60;;;;;;;-2.39;65.04;101851.19;5102095;28;20460;-60
2022/12/17 17:24:02;;;;;;;52.97;20.47;;;;;;;-2.39;65.41;101853.78;5100493;28;20457;-59
2022/12/17 17:26:32;;;;;;;52.00;20.20;;;;;;;-2.29;65.61;101854.44;5106294;28;20452;-59
2022/12/17 17:29:01;;;;;;;52.50;19.63;;;;;;;-2.29;65.32;101854.44;5101945;27;20492;-59
2022/12/17 17:31:29;;;;;;;48.23;19.10;;;;;;;-2.22;64.70;101850.81;5099689;28;20457;-60
2022/12/17 17:34:16;;;;;;;46.33;18.37;;;;;;;-2.30;64.88;101850.13;5098723;28;20536;-58
2022/12/17 17:36:44;;;;;;;47.13;19.10;;;;;;;-2.38;65.12;101857.22;5107063;27;21480;-57
2022/12/17 17:39:13;;;;;;;52.90;20.83;;;;;;;-2.47;65.68;101857.44;5102940;27;20468;-59
2022/12/17 17:41:41;;;;;;;46.63;18.37;;;;;;;-2.43;65.76;101859.06;5082597;28;20546;-60
2022/12/17 17:44:12;;;;;;;52.97;19.93;;;;;;;-2.43;65.76;101864.25;5098038;27;20554;-59
2022/12/17 17:46:41;;;;;;;48.00;20.90;;;;;;;-2.49;66.09;101874.78;5102151;27;20443;-59
2022/12/17 17:49:10;;;;;;;49.60;20.20;;;;;;;-2.38;65.69;101872.81;5101275;27;20490;-60
2022/12/17 17:51:40;;;;;;;50.63;19.33;;;;;;;-2.36;65.53;101881.41;5110730;27;20478;-60
2022/12/17 17:54:30;;;;;;;55.80;19.23;;;;;;;-2.43;66.14;101885.03;5101053;27;20477;-60
2022/12/17 17:56:57;;;;;;;46.13;19.07;;;;;;;-2.39;65.69;101878.91;5102021;27;20457;-59
2022/12/17 17:59:25;;;;;;;53.20;21.07;;;;;;;-2.32;66.15;101876.13;5103359;27;20464;-59
2022/12/17 18:02:01;;;;;;;44.73;19.07;;;;;;;-2.25;65.49;101882.06;5100750;28;20471;-59
2022/12/17 18:04:29;;;;;;;50.30;19.13;;;;;;;-2.33;65.69;101883.97;5105522;27;20455;-59
2022/12/17 18:06:57;;;;;;;49.23;18.60;;;;;;;-2.42;65.70;101877.22;5101167;27;20466;-60
2022/12/17 18:09:46;;;;;;;45.50;17.90;;;;;;;-2.45;66.06;101876.41;5105870;27;20549;-60
2022/12/17 18:14:55;;;;;;;45.20;16.90;;;;;;;-2.48;65.67;101882.53;5069914;27;20524;-61
2022/12/17 18:17:42;;;;;;;44.47;17.07;;;;;;;-2.47;65.71;101893.78;5096620;27;20453;-60
2022/12/17 18:20:10;;;;;;;45.77;18.47;;;;;;;-2.44;65.86;101898.91;5098003;27;20515;-61
2022/12/17 18:22:39;;;;;;;49.13;17.47;;;;;;;-2.38;65.70;101914.38;5109337;27;20552;-60
2022/12/17 18:25:09;;;;;;;47.23;17.77;;;;;;;-2.35;65.46;101909.97;5094328;28;20468;-59
2022/12/17 18:27:37;;;;;;;47.70;18.03;;;;;;;-2.29;65.10;101907.22;5099727;27;20565;-59
2022/12/17 18:30:05;;;;;;;40.53;17.10;;;;;;;-2.28;65.14;101902.91;5103463;27;20886;-59
2022/12/17 18:32:33;;;;;;;50.53;19.60;;;;;;;-2.28;65.36;101901.16;5104622;28;20506;-61
2022/12/17 18:35:01;;;;;;;52.00;20.10;;;;;;;-2.19;64.77;101894.91;5110444;27;20823;-59
2022/12/17 18:37:29;;;;;;;47.40;19.93;;;;;;;-2.22;64.46;101895.00;5090915;28;20465;-59
2022/12/17 18:39:56;;;;;;;50.10;19.57;;;;;;;-2.34;64.47;101884.84;5103138;27;20478;-60
2022/12/17 18:45:14;;;;;;;53.17;20.00;;;;;;;-2.51;65.53;101894.72;5101713;27;20875;-59
2022/12/17 18:47:43;;;;;;;49.87;20.40;;;;;;;-2.51;65.78;101886.94;5108190;27;22246;-60
2022/12/17 18:50:12;;;;;;;49.83;20.83;;;;;;;-2.42;65.67;101889.34;5104799;27;20488;-61
2022/12/17 18:52:41;;;;;;;54.17;21.43;;;;;;;-2.42;65.36;101898.00;5108270;27;20481;-59
2022/12/17 18:55:10;;;;;;;51.00;20.93;;;;;;;-2.40;65.61;101895.38;5106665;27;20482;-60
2022/12/17 18:57:39;;;;;;;50.67;19.83;;;;;;;-2.39;65.24;101907.47;5101293;27;20457;-60
2022/12/17 19:00:08;;;;;;;49.80;20.03;;;;;;;-2.37;65.72;101911.72;5096143;28;20465;-61
2022/12/17 19:02:35;;;;;;;56.07;20.50;;;;;;;-2.26;65.69;101919.31;5104899;27;21302;-61
2022/12/17 19:05:04;;;;;;;46.83;18.57;;;;;;;-2.28;65.73;101915.88;5110677;27;20459;-59
2022/12/17 19:07:34;;;;;;;47.77;18.73;;;;;;;-2.31;65.60;101910.78;5107737;27;20456;-59
2022/12/17 19:10:01;;;;;;;44.97;18.80;;;;;;;-2.31;65.59;101913.38;5108831;27;20467;-59
2022/12/17 19:12:29;;;;;;;49.67;19.77;;;;;;;-2.47;65.37;101906.78;5106849;27;20482;-59
2022/12/17 19:14:58;;;;;;;50.77;20.27;;;;;;;-2.51;65.90;101905.13;5102895;27;20493;-61
2022/12/17 19:17:26;;;;;;;49.53;20.47;;;;;;;-2.50;66.13;101905.09;5105966;27;20456;-59
2022/12/17 19:19:54;;;;;;;56.60;21.20;;;;;;;-2.46;66.26;101911.09;5108145;27;20456;-59
2022/12/17 19:22:21;;;;;;;48.80;18.80;;;;;;;-2.49;66.25;101914.59;5107416;27;20476;-59
2022/12/17 19:24:57;;;;;;;51.70;20.37;;;;;;;-2.58;66.19;101916.50;5107318;27;21095;-63
2022/12/17 19:27:27;;;;;;;57.40;21.23;;;;;;;-2.61;66.50;101913.97;5105619;27;20462;-62
2022/12/17 19:29:55;;;;;;;50.93;20.57;;;;;;;-2.47;66.63;101920.63;5109076;27;20899;-59
2022/12/17 19:32:25;;;;;;;51.67;20.53;;;;;;;-2.46;66.73;101916.28;5112776;27;20470;-59
2022/12/17 19:34:53;;;;;;;49.63;19.07;;;;;;;-2.26;66.07;101908.91;5105504;27;20464;-59
2022/12/17 19:37:21;;;;;;;49.60;18.53;;;;;;;-2.32;66.15;101915.13;5108589;27;20463;-58
2022/12/17 19:39:48;;;;;;;51.00;19.00;;;;;;;-2.19;65.83;101909.66;5102967;27;20456;-57
2022/12/17 19:42:24;;;;;;;48.53;19.43;;;;;;;-2.22;65.64;101913.19;5102964;27;20457;-59
2022/12/17 19:44:52;;;;;;;51.07;19.70;;;;;;;-2.27;65.35;101915.00;5104281;27;21266;-59
2022/12/17 19:47:21;;;;;;;56.53;21.10;;;;;;;-2.33;65.26;101915.13;5102023;27;20546;-59
2022/12/17 19:49:50;;;;;;;51.57;19.77;;;;;;;-2.41;65.46;101922.25;5111241;27;20460;-59
2022/12/17 19:52:18;;;;;;;53.50;19.67;;;;;;;-2.45;65.60;101913.63;5109711;27;20453;-60
2022/12/17 19:54:46;;;;;;;53.73;20.10;;;;;;;-2.48;65.79;101915.47;5100353;27;20464;-59
2022/12/17 19:57:13;;;;;;;57.57;19.93;;;;;;;-2.49;66.07;101908.53;5108413;27;20493;-59
2022/12/17 19:59:41;;;;;;;54.17;19.10;;;;;;;-2.50;66.02;101914.63;5104275;27;20460;-59
2022/12/17 20:02:09;;;;;;;51.23;18.67;;;;;;;-2.53;66.12;101912.06;5107261;27;20472;-61
2022/12/17 20:04:37;;;;;;;45.60;18.90;;;;;;;-2.63;66.52;101913.13;5109126;28;20464;-60
2022/12/17 20:07:06;;;;;;;59.37;20.37;;;;;;;-2.68;66.76;101908.91;5098221;28;20514;-59
2022/12/17 20:09:34;;;;;;;52.63;20.90;;;;;;;-2.75;66.79;101907.31;5101446;27;20452;-59
2022/12/17 20:12:02;;;;;;;50.43;17.67;;;;;;;-2.61;66.80;101906.19;5108791;28;21134;-60
2022/12/17 20:14:30;;;;;;;46.03;18.13;;;;;;;-2.64;66.30;101908.84;5106944;28;20452;-60
2022/12/17 20:16:59;;;;;;;47.30;19.07;;;;;;;-2.66;66.38;101914.94;5102824;28;20488;-60
2022/12/17 20:19:29;;;;;;;53.33;19.63;;;;;;;-2.61;66.41;101926.94;5106547;28;20522;-59
2022/12/17 20:21:58;;;;;;;51.77;18.30;;;;;;;-2.62;66.44;101925.25;5099672;28;20457;-59
2022/12/17 20:24:28;;;;;;;55.17;19.27;;;;;;;-2.66;66.30;101920.13;5105799;28;20445;-60
2022/12/17 20:27:00;;;;;;;50.13;18.43;;;;;;;-2.66;66.37;101917.53;5099091;28;20544;-59
2022/12/17 20:29:27;;;;;;;46.60;17.53;;;;;;;-2.71;66.82;101936.66;5097711;28;20556;-60
2022/12/17 20:31:55;;;;;;;46.77;18.00;;;;;;;-2.77;66.81;101948.03;5103777;28;20498;-61
2022/12/17 20:34:24;;;;;;;55.70;19.07;;;;;;;-2.81;67.55;101940.31;5105079;28;20540;-60
2022/12/17 20:36:52;;;;;;;53.73;20.33;;;;;;;-2.89;67.34;101940.44;5104219;28;20493;-59
2022/12/17 20:39:20;;;;;;;61.03;20.33;;;;;;;-2.92;67.30;101948.31;5102078;28;20455;-60
2022/12/17 20:41:56;;;;;;;48.87;19.90;;;;;;;-2.93;68.31;101941.41;5105044;28;20513;-60
2022/12/17 20:44:23;;;;;;;56.43;19.17;;;;;;;-2.83;67.71;101932.56;5103739;28;21062;-59
2022/12/17 20:46:51;;;;;;;61.08;26.83;;;;;;;-2.83;67.87;101918.72;5106890;28;20525;-64
2022/12/17 20:49:19;;;;;;;55.80;23.47;;;;;;;-2.66;67.68;101920.13;5101104;28;20218;-62
2022/12/17 20:51:47;;;;;;;50.53;20.47;;;;;;;-2.52;66.98;101921.59;5099199;28;20454;-63
2022/12/17 20:54:14;;;;;;;53.97;21.33;;;;;;;-2.46;66.67;101926.69;5104417;28;20464;-62
2022/12/17 20:56:42;;;;;;;50.90;20.80;;;;;;;-2.50;66.68;101931.06;5105053;28;22479;-65
2022/12/17 20:59:15;;;;;;;58.77;21.87;;;;;;;-2.48;66.66;101929.31;5108024;27;20464;-62
2022/12/17 21:01:43;;;;;;;46.87;19.97;;;;;;;-2.44;66.24;101937.88;5099983;28;20458;-62
2022/12/17 21:04:12;;;;;;;52.43;19.30;;;;;;;-2.47;66.02;101938.81;5106630;28;20490;-63
2022/12/17 21:06:42;;;;;;;45.67;18.33;;;;;;;-2.48;66.01;101942.28;5104297;28;20543;-63
2022/12/17 21:09:10;;;;;;;56.00;19.77;;;;;;;-2.47;66.00;101950.94;5104363;28;20463;-63
2022/12/17 21:11:39;;;;;;;54.00;20.03;;;;;;;-2.47;66.17;101961.34;5103843;28;20484;-62
2022/12/17 21:14:14;;;;;;;48.90;18.53;;;;;;;-2.49;66.33;101960.50;5104643;28;20471;-63
2022/12/17 21:16:42;;;;;;;52.17;19.43;;;;;;;-2.50;66.38;101958.78;5101945;28;20482;-63
2022/12/17 21:19:14;;;;;;;53.80;19.50;;;;;;;-2.38;66.41;101954.22;5108588;28;20452;-63
2022/12/17 21:21:44;;;;;;;50.57;19.57;;;;;;;-2.33;65.99;101946.31;5101444;28;20469;-62
2022/12/17 21:24:12;;;;;;;46.83;18.60;;;;;;;-2.18;65.71;101942.53;5098238;28;20470;-63
2022/12/17 21:26:43;;;;;;;50.87;19.70;;;;;;;-2.10;65.15;101933.69;5098789;28;20535;-64
2022/12/17 21:29:11;;;;;;;47.70;18.60;;;;;;;-2.18;65.62;101937.34;5106433;28;21003;-62
2022/12/17 21:31:42;;;;;;;51.27;19.30;;;;;;;-2.22;65.85;101946.97;5105976;28;20445;-64
2022/12/17 21:34:12;;;;;;;44.80;17.63;;;;;;;-2.18;65.93;101942.53;5105805;28;20814;-62
2022/12/17 21:36:40;;;;;;;50.37;18.80;;;;;;;-2.22;65.62;101952.16;5103936;28;20499;-62
2022/12/17 21:39:09;;;;;;;45.10;16.37;;;;;;;-2.33;66.04;101952.38;5099418;28;20463;-61
2022/12/17 21:41:38;;;;;;;49.83;17.77;;;;;;;-2.43;66.42;101953.44;5099638;28;20836;-62
2022/12/17 21:44:13;;;;;;;48.07;17.80;;;;;;;-2.44;66.48;101959.50;5106090;28;20881;-63
2022/12/17 21:46:43;;;;;;;46.43;17.77;;;;;;;-2.40;66.62;101963.78;5098347;28;20521;-62
2022/12/17 21:49:17;;;;;;;54.73;18.63;;;;;;;-2.40;66.32;101963.78;5108342;27;20456;-62
2022/12/17 21:51:45;;;;;;;52.97;19.77;;;;;;;-2.34;66.21;101955.00;5110681;27;20534;-62
2022/12/17 21:54:13;;;;;;;47.63;18.60;;;;;;;-2.30;65.92;101959.25;5101046;27;20457;-63
2022/12/17 21:56:46;;;;;;;46.23;18.73;;;;;;;-2.35;65.81;101961.06;5094508;27;20472;-63
2022/12/17 21:59:14;;;;;;;48.13;17.77;;;;;;;-2.23;65.32;101949.59;5096195;28;20455;-64
2022/12/17 22:01:43;;;;;;;50.87;18.93;;;;;;;-2.17;64.93;101950.31;5110514;27;20491;-63
2022/12/17 22:04:11;;;;;;;48.90;18.50;;;;;;;-2.29;64.96;101953.19;5104300;27;20457;-64
2022/12/17 22:06:39;;;;;;;49.83;19.27;;;;;;;-2.33;65.37;101954.97;5105365;27;20939;-63
2022/12/17 22:09:22;;;;;;;53.43;18.77;;;;;;;-2.42;65.81;101951.69;5100954;28;21173;-64
2022/12/17 22:14:55;;;;;;;47.23;17.50;;;;;;;-2.47;66.33;101954.41;5104485;28;20457;-64
2022/12/17 22:17:25;;;;;;;46.73;18.93;;;;;;;-2.44;66.46;101958.66;5102739;28;20488;-64
2022/12/17 22:19:52;;;;;;;51.50;18.17;;;;;;;-2.36;66.29;101961.97;5111771;27;20468;-62
2022/12/17 22:22:20;;;;;;;47.37;17.50;;;;;;;-2.34;66.21;101958.47;5107507;28;20467;-64
2022/12/17 22:24:48;;;;;;;54.80;19.13;;;;;;;-2.32;65.95;101955.84;5106009;28;20460;-64
2022/12/17 22:27:15;;;;;;;51.10;18.60;;;;;;;-2.33;65.92;101948.91;5101978;27;20993;-63
2022/12/17 22:35:16;;;;;;;50.50;18.07;;;;;;;-2.44;66.76;101946.53;5107419;28;20483;-64
2022/12/17 22:38:05;;;;;;;45.10;18.43;;;;;;;-2.31;66.68;101960.16;5096465;28;20568;-62
2022/12/17 22:40:53;;;;;;;43.07;17.70;;;;;;;-2.23;66.24;101966.03;5103707;28;20464;-63
2022/12/17 22:43:40;;;;;;;53.20;17.33;;;;;;;-2.23;66.04;101965.19;5082426;28;20481;-64
2022/12/17 22:46:27;;;;;;;45.70;18.83;;;;;;;-2.26;66.37;101960.91;5099775;27;20513;-63
2022/12/17 22:48:57;;;;;;;52.67;19.10;;;;;;;-2.17;66.28;101955.50;5102107;27;20824;-62
2022/12/17 22:51:26;;;;;;;45.60;17.60;;;;;;;-2.16;66.50;101957.22;5103266;28;20471;-63
2022/12/17 22:54:01;;;;;;;44.30;17.27;;;;;;;-2.07;65.88;101962.25;5101432;28;20862;-64
2022/12/17 22:56:30;;;;;;;48.30;17.10;;;;;;;-2.15;66.37;101955.50;5104737;28;20458;-63
2022/12/17 22:59:19;;;;;;;49.30;17.17;;;;;;;-2.19;66.63;101952.09;5100772;28;20557;-63
2022/12/17 23:01:49;;;;;;;45.80;18.53;;;;;;;-2.20;66.93;101950.41;5104599;28;20588;-62
2022/12/17 23:04:18;;;;;;;48.07;17.60;;;;;;;-2.11;66.47;101952.78;5097165;28;20462;-62
2022/12/17 23:06:47;;;;;;;47.97;17.80;;;;;;;-2.06;66.31;101956.16;5102144;27;20830;-63
2022/12/17 23:09:18;;;;;;;50.47;19.37;;;;;;;-2.10;66.39;101951.91;5105138;27;21173;-63
2022/12/17 23:11:47;;;;;;;49.13;17.60;;;;;;;-2.13;66.48;101967.56;5104680;28;20912;-63
2022/12/17 23:14:15;;;;;;;46.30;16.77;;;;;;;-2.16;66.13;101966.78;5111363;27;20475;-62
2022/12/17 23:16:43;;;;;;;52.10;19.10;;;;;;;-2.24;66.47;101977.31;5106751;27;20471;-63
2022/12/17 23:19:11;;;;;;;49.53;18.10;;;;;;;-2.17;66.23;101976.31;5104509;27;20463;-63
2022/12/17 23:21:42;;;;;;;50.97;19.17;;;;;;;-2.14;65.71;101983.19;5101853;27;20454;-62
2022/12/17 23:24:10;;;;;;;54.63;17.67;;;;;;;-1.98;65.59;101977.66;5106641;27;20460;-63
2022/12/17 23:26:39;;;;;;;50.37;17.87;;;;;;;-1.95;64.87;101976.75;5109624;27;20532;-63
2022/12/17 23:29:08;;;;;;;51.50;18.90;;;;;;;-2.13;65.38;101983.16;5103599;27;20917;-63
2022/12/17 23:31:42;;;;;;;49.57;17.90;;;;;;;-2.27;65.80;101975.63;5107807;27;20452;-62
2022/12/17 23:34:10;;;;;;;46.83;19.40;;;;;;;-2.23;66.00;101976.44;5099538;27;20570;-66
2022/12/17 23:36:38;;;;;;;53.53;19.07;;;;;;;-2.24;65.73;101973.88;5094957;27;20818;-61
2022/12/17 23:39:07;;;;;;;46.77;17.93;;;;;;;-2.33;66.08;101974.91;5104674;27;20849;-63
2022/12/17 23:41:35;;;;;;;53.73;19.00;;;;;;;-2.20;66.18;101973.78;5108317;27;20542;-63
2022/12/17 23:44:02;;;;;;;52.90;19.17;;;;;;;-2.19;66.19;101972.00;5101848;28;20465;-63
2022/12/17 23:46:30;;;;;;;50.00;18.30;;;;;;;-2.22;66.09;101978.16;5101721;28;20462;-62
2022/12/17 23:48:58;;;;;;;43.43;17.47;;;;;;;-2.16;65.75;101971.97;5105723;27;20515;-62
2022/12/17 23:51:26;;;;;;;48.17;18.07;;;;;;;-2.26;65.60;101966.09;5105543;27;20449;-63
2022/12/17 23:53:54;;;;;;;52.03;17.43;;;;;;;-2.29;65.23;101967.00;5104563;28;20453;-62
2022/12/17 23:56:26;;;;;;;45.23;16.90;;;;;;;-2.35;65.18;101961.06;5103654;27;20464;-64
2022/12/17 23:58:56;;;;;;;52.30;18.27;;;;;;;-2.33;65.17;101961.91;5102513;27;20476;-64
